Time;durP1;ratioP1;P1;durP2;ratioP2;P2;SDS_P1;SDS_P2;PMS_P1;PMS_P2;Temp;Humidity;BMP_temperature;BMP_pressure;BME280_temperature;BME280_humidity;BME280_pressure;Samples;Min_cycle;Max_cycle;Signal;HPM_P1;HPM_P2
2022/03/11 00:05:41;;;;;;;1.10;1.00;;;;;;;-148.93;100.00;62180.91;20921633;28;20052;-77
2022/03/11 00:15:43;;;;;;;1.30;1.08;;;;;;;-148.93;100.00;62180.91;20941004;28;20056;-77
2022/03/11 00:25:45;;;;;;;1.70;1.25;;;;;;;-148.93;100.00;62180.91;20933065;28;20098;-77
2022/03/11 00:35:47;;;;;;;1.33;1.00;;;;;;;-148.93;100.00;62180.91;20923809;28;20056;-77
2022/03/11 00:45:49;;;;;;;2.17;1.33;;;;;;;-148.93;100.00;62180.91;20966475;28;20044;-77
2022/03/11 00:55:51;;;;;;;1.75;1.27;;;;;;;-148.93;100.00;62180.91;20945831;28;20059;-77
2022/03/11 01:05:53;;;;;;;1.35;1.23;;;;;;;-148.93;100.00;62180.91;20915601;28;20049;-76
2022/03/11 01:15:54;;;;;;;2.05;1.30;;;;;;;-148.93;100.00;62180.91;20900998;28;20618;-77
2022/03/11 01:25:57;;;;;;;1.83;1.10;;;;;;;-148.93;100.00;62180.91;20895973;28;20038;-77
2022/03/11 01:35:58;;;;;;;1.80;1.30;;;;;;;-148.93;100.00;62180.91;20797668;28;20045;-77
2022/03/11 01:46:01;;;;;;;1.40;1.30;;;;;;;-148.93;100.00;62180.91;20871414;28;20086;-77
2022/03/11 01:56:03;;;;;;;2.28;1.30;;;;;;;-148.93;100.00;62180.91;20897561;28;20515;-77
2022/03/11 02:06:07;;;;;;;2.17;1.17;;;;;;;-148.93;100.00;62180.91;20898306;28;20061;-77
2022/03/11 02:16:14;;;;;;;1.50;1.17;;;;;;;-148.93;100.00;62180.91;20892446;28;20535;-77
2022/03/11 02:26:18;;;;;;;3.08;1.13;;;;;;;-148.93;100.00;62180.91;20897883;28;20107;-77
2022/03/11 02:36:20;;;;;;;3.17;2.28;;;;;;;-148.93;100.00;62180.91;20880278;28;20053;-78
2022/03/11 02:46:21;;;;;;;1.40;0.98;;;;;;;-148.93;100.00;62180.91;20872885;28;20045;-76
2022/03/11 02:56:25;;;;;;;1.98;1.48;;;;;;;-148.93;100.00;62180.91;20900014;28;20087;-77
2022/03/11 03:06:26;;;;;;;3.10;1.38;;;;;;;-148.93;100.00;62180.91;20895127;28;20077;-77
2022/03/11 03:16:29;;;;;;;1.65;1.20;;;;;;;-148.93;100.00;62180.91;20944945;28;20043;-78
2022/03/11 03:26:31;;;;;;;2.83;1.40;;;;;;;-148.93;100.00;62180.91;20939094;28;20052;-77
2022/03/11 03:36:33;;;;;;;1.75;1.35;;;;;;;-148.93;100.00;62180.91;20926571;28;20043;-77
2022/03/11 03:46:34;;;;;;;2.05;1.42;;;;;;;-148.93;100.00;62180.91;20931683;28;20049;-77
2022/03/11 03:56:40;;;;;;;2.33;1.60;;;;;;;-148.93;100.00;62180.91;20928841;28;20033;-76
2022/03/11 04:06:42;;;;;;;2.60;1.58;;;;;;;-148.93;100.00;62180.91;20905050;28;20139;-77
2022/03/11 04:16:44;;;;;;;3.13;1.52;;;;;;;-148.93;100.00;62180.91;20919598;28;20511;-77
2022/03/11 04:26:46;;;;;;;2.20;1.80;;;;;;;-148.93;100.00;62180.91;20936623;28;20056;-77
2022/03/11 04:36:48;;;;;;;2.47;1.83;;;;;;;-148.93;100.00;62180.91;20917009;28;20041;-77
2022/03/11 04:46:50;;;;;;;2.50;2.05;;;;;;;-148.93;100.00;62180.91;20930325;28;20041;-78
2022/03/11 04:56:52;;;;;;;3.53;1.80;;;;;;;-148.93;100.00;62180.91;20913314;28;20041;-76
2022/03/11 05:06:54;;;;;;;2.38;1.70;;;;;;;-148.93;100.00;62180.91;20930916;28;20139;-77
2022/03/11 05:16:55;;;;;;;2.55;1.98;;;;;;;-148.93;100.00;62180.91;20937757;28;20041;-77
2022/03/11 05:27:01;;;;;;;3.47;1.90;;;;;;;-148.93;100.00;62180.91;20902251;28;20516;-77
2022/03/11 05:37:05;;;;;;;3.03;1.80;;;;;;;-148.93;100.00;62180.91;20889560;28;20131;-78
2022/03/11 05:47:07;;;;;;;2.53;2.10;;;;;;;-148.93;100.00;62180.91;20866167;28;20470;-77
2022/03/11 05:57:09;;;;;;;3.42;2.10;;;;;;;-148.93;100.00;62180.91;20925549;28;20049;-77
2022/03/11 06:07:11;;;;;;;2.85;1.90;;;;;;;-148.93;100.00;62180.91;20899340;28;20155;-76
2022/03/11 06:17:13;;;;;;;3.58;2.28;;;;;;;-148.93;100.00;62180.91;20905113;28;20041;-77
2022/03/11 06:27:15;;;;;;;3.00;2.30;;;;;;;-148.93;100.00;62180.91;20904906;28;20094;-79
2022/03/11 06:37:17;;;;;;;2.72;1.90;;;;;;;-148.93;100.00;62180.91;20916398;28;20052;-79
2022/03/11 06:47:19;;;;;;;2.42;1.88;;;;;;;-148.93;100.00;62180.91;20921442;28;20067;-77
2022/03/11 06:57:21;;;;;;;2.83;2.03;;;;;;;-148.93;100.00;62180.91;20919683;28;20063;-78
2022/03/11 07:07:23;;;;;;;3.88;2.70;;;;;;;-148.93;100.00;62180.91;20901360;28;20055;-80
2022/03/11 07:17:25;;;;;;;4.10;2.88;;;;;;;-148.93;100.00;62180.91;20917729;28;20055;-77
2022/03/11 07:27:27;;;;;;;4.60;2.92;;;;;;;-148.93;100.00;62180.91;20917505;28;20049;-77
2022/03/11 07:37:28;;;;;;;4.28;3.10;;;;;;;-148.93;100.00;62180.91;20916395;28;20045;-77
2022/03/11 07:47:30;;;;;;;4.78;3.47;;;;;;;-148.93;100.00;62180.91;20914682;28;20485;-77
2022/03/11 07:57:32;;;;;;;5.65;3.17;;;;;;;-148.93;100.00;62180.91;20914701;28;20106;-77
2022/03/11 08:07:34;;;;;;;4.90;3.45;;;;;;;-148.93;100.00;62180.91;20914046;28;20494;-77
2022/03/11 08:17:36;;;;;;;5.10;3.42;;;;;;;-148.93;100.00;62180.91;20911912;28;20037;-77
2022/03/11 08:27:40;;;;;;;4.45;3.15;;;;;;;-148.93;100.00;62180.91;20918222;28;20049;-76
2022/03/11 08:37:42;;;;;;;6.22;3.90;;;;;;;-148.93;100.00;62180.91;20994024;28;20059;-75
2022/03/11 08:47:44;;;;;;;7.75;4.35;;;;;;;-148.93;100.00;62180.91;20975864;28;20053;-76
2022/03/11 08:57:50;;;;;;;5.43;4.30;;;;;;;-148.93;100.00;62180.91;20943733;28;20055;-76
2022/03/11 09:07:52;;;;;;;7.60;4.32;;;;;;;-148.93;100.00;62180.91;20968405;28;20139;-76
2022/03/11 09:17:53;;;;;;;5.95;4.72;;;;;;;-148.93;100.00;62180.91;20956660;28;20139;-77
2022/03/11 09:27:56;;;;;;;5.65;4.45;;;;;;;-148.93;100.00;62180.91;20972938;28;20041;-77
2022/03/11 09:37:58;;;;;;;6.68;4.65;;;;;;;-148.93;100.00;62180.91;20972430;28;20135;-77
2022/03/11 09:48:00;;;;;;;4.88;3.95;;;;;;;-148.93;100.00;62180.91;20971815;28;20036;-77
2022/03/11 09:58:03;;;;;;;5.70;4.30;;;;;;;-148.93;100.00;62180.91;20951681;28;20067;-75
2022/03/11 10:08:08;;;;;;;6.72;4.65;;;;;;;-148.93;100.00;62180.91;20911625;28;20060;-77
2022/03/11 10:18:10;;;;;;;6.33;4.50;;;;;;;-148.93;100.00;62180.91;20905404;28;20390;-77
2022/03/11 10:28:13;;;;;;;6.35;5.03;;;;;;;-148.93;100.00;62180.91;20887100;28;20041;-77
2022/03/11 10:38:30;;;;;;;6.43;4.85;;;;;;;-148.93;100.00;62180.91;20904594;28;20071;-77
2022/03/11 10:48:47;;;;;;;6.22;4.50;;;;;;;-148.93;100.00;62180.91;20887495;28;20053;-77
2022/03/11 10:58:49;;;;;;;5.68;4.10;;;;;;;-148.93;100.00;62180.91;20926732;28;20040;-77
2022/03/11 11:08:51;;;;;;;7.72;4.82;;;;;;;-148.93;100.00;62180.91;20969238;28;20052;-77
2022/03/11 11:18:57;;;;;;;8.00;4.93;;;;;;;-148.93;100.00;62180.91;20972158;28;20049;-77
2022/03/11 11:29:00;;;;;;;6.82;4.82;;;;;;;-148.93;100.00;62180.91;20997017;28;20792;-77
2022/03/11 11:39:05;;;;;;;6.97;4.63;;;;;;;-148.93;100.00;62180.91;20965004;28;20044;-77
2022/03/11 11:49:16;;;;;;;5.85;4.82;;;;;;;-148.93;100.00;62180.91;20982235;28;20053;-76
2022/03/11 11:59:38;;;;;;;7.15;4.40;;;;;;;-148.93;100.00;62180.91;20979937;28;20067;-76
2022/03/11 12:19:45;;;;;;;6.32;4.53;;;;;;;-148.93;100.00;62180.91;20977979;28;20052;-76
2022/03/11 12:29:46;;;;;;;6.85;5.35;;;;;;;-148.93;100.00;62180.91;20978232;28;20040;-76
2022/03/11 12:39:48;;;;;;;5.22;4.30;;;;;;;-148.93;100.00;62180.91;20993986;28;20045;-76
2022/03/11 12:50:03;;;;;;;6.05;4.60;;;;;;;-148.93;100.00;62180.91;20975980;28;20056;-76
2022/03/11 13:00:05;;;;;;;5.90;4.47;;;;;;;-148.93;100.00;62180.91;20992633;28;20045;-77
2022/03/11 13:10:16;;;;;;;6.00;4.80;;;;;;;-148.93;100.00;62180.91;20992122;28;20134;-77
2022/03/11 13:20:52;;;;;;;7.82;4.80;;;;;;;-148.93;100.00;62180.91;20991070;28;20057;-77
2022/03/11 13:30:57;;;;;;;5.32;4.20;;;;;;;-148.93;100.00;62180.91;20980926;28;20095;-77
2022/03/11 13:40:59;;;;;;;7.88;4.38;;;;;;;-148.93;100.00;62180.91;20951884;28;20051;-77
2022/03/11 13:51:05;;;;;;;7.57;4.22;;;;;;;-148.93;100.00;62180.91;20906086;28;20084;-78
2022/03/11 14:01:09;;;;;;;;;;;;;;;-148.93;100.00;62180.91;20906495;28;20059;-78
2022/03/11 14:11:11;;;;;;;6.10;4.13;;;;;;;-148.93;100.00;62180.91;20906033;28;19921;-78
2022/03/11 14:21:14;;;;;;;6.05;3.70;;;;;;;-148.93;100.00;62180.91;20905374;28;20399;-78
2022/03/11 14:31:16;;;;;;;5.43;4.00;;;;;;;-148.93;100.00;62180.91;20887198;28;20119;-78
2022/03/11 14:41:18;;;;;;;6.65;4.78;;;;;;;-148.93;100.00;62180.91;20904206;28;20095;-78
2022/03/11 14:51:20;;;;;;;7.05;4.30;;;;;;;-148.93;100.00;62180.91;20887050;28;20059;-78
2022/03/11 15:01:21;;;;;;;6.07;3.95;;;;;;;-148.93;100.00;62180.91;20919361;28;20689;-78
2022/03/11 15:11:24;;;;;;;5.43;3.83;;;;;;;-148.93;100.00;62180.91;20916570;28;20056;-78
2022/03/11 15:21:26;;;;;;;6.15;3.83;;;;;;;-148.93;100.00;62180.91;20900494;28;20048;-78
2022/03/11 15:31:29;;;;;;;5.10;3.70;;;;;;;-148.93;100.00;62180.91;20916955;28;20056;-77
2022/03/11 15:41:32;;;;;;;4.65;3.42;;;;;;;-148.93;100.00;62180.91;20916238;28;20056;-78
2022/03/11 15:51:34;;;;;;;4.38;3.42;;;;;;;-148.93;100.00;62180.91;20915789;28;20131;-78
2022/03/11 16:01:36;;;;;;;5.25;3.72;;;;;;;-148.93;100.00;62180.91;20914851;28;20384;-78
2022/03/11 16:11:39;;;;;;;4.30;3.08;;;;;;;-148.93;100.00;62180.91;20891087;28;20115;-78
2022/03/11 16:21:42;;;;;;;5.07;3.35;;;;;;;-148.93;100.00;62180.91;20895890;28;20048;-78
2022/03/11 16:31:45;;;;;;;4.47;3.65;;;;;;;-148.93;100.00;62180.91;20912282;28;20132;-78
2022/03/11 16:42:00;;;;;;;5.95;3.10;;;;;;;-148.93;100.00;62180.91;20911462;28;20127;-79
2022/03/11 16:52:04;;;;;;;4.10;3.08;;;;;;;-148.93;100.00;62180.91;20893242;28;20080;-79
2022/03/11 17:02:05;;;;;;;4.53;2.92;;;;;;;-148.93;100.00;62180.91;20909065;28;20049;-79
2022/03/11 17:12:11;;;;;;;3.92;2.88;;;;;;;-148.93;100.00;62180.91;20909251;28;20067;-79
2022/03/11 17:22:29;;;;;;;3.25;2.83;;;;;;;-148.93;100.00;62180.91;20893213;28;20045;-79
2022/03/11 17:32:31;;;;;;;4.45;2.70;;;;;;;-148.93;100.00;62180.91;20873811;28;20053;-79
2022/03/11 17:42:34;;;;;;;5.32;2.65;;;;;;;-148.93;100.00;62180.91;20889404;28;20522;-79
2022/03/11 17:52:36;;;;;;;3.75;2.60;;;;;;;-148.93;100.00;62180.91;20906571;28;20499;-80
2022/03/11 18:02:40;;;;;;;3.63;2.78;;;;;;;-148.93;100.00;62180.91;20905730;28;20048;-79
2022/03/11 18:12:43;;;;;;;2.75;2.20;;;;;;;-148.93;100.00;62180.91;20888285;28;20474;-80
2022/03/11 18:22:45;;;;;;;3.75;2.35;;;;;;;-148.93;100.00;62180.91;20905174;28;20041;-78
2022/03/11 18:32:48;;;;;;;5.70;2.53;;;;;;;-148.93;100.00;62180.91;20898621;28;20068;-78
2022/03/11 18:42:50;;;;;;;2.85;1.80;;;;;;;-148.93;100.00;62180.91;20902900;28;20047;-78
2022/03/11 18:52:54;;;;;;;3.58;2.45;;;;;;;-148.93;100.00;62180.91;20902862;28;20485;-78
2022/03/11 19:02:58;;;;;;;3.83;2.28;;;;;;;-148.93;100.00;62180.91;20919196;28;20091;-78
2022/03/11 19:13:00;;;;;;;3.25;1.95;;;;;;;-148.93;100.00;62180.91;20918910;28;20060;-78
2022/03/11 19:23:03;;;;;;;3.72;2.15;;;;;;;-148.93;100.00;62180.91;20900411;28;20059;-78
2022/03/11 19:33:05;;;;;;;4.65;2.08;;;;;;;-148.93;100.00;62180.91;20900575;28;20056;-77
2022/03/11 19:43:09;;;;;;;3.80;2.35;;;;;;;-148.93;100.00;62180.91;20916180;28;20076;-78
2022/03/11 19:53:13;;;;;;;3.67;2.00;;;;;;;-148.93;100.00;62180.91;20898315;28;20048;-77
2022/03/11 20:03:17;;;;;;;3.20;2.13;;;;;;;-148.93;100.00;62180.91;20881265;28;20040;-77
2022/03/11 20:13:25;;;;;;;3.17;1.70;;;;;;;-148.93;100.00;62180.91;20929921;28;20479;-78
2022/03/11 20:23:28;;;;;;;1.98;1.77;;;;;;;-148.93;100.00;62180.91;20913203;28;20478;-78
2022/03/11 20:33:30;;;;;;;2.75;1.63;;;;;;;-148.93;100.00;62180.91;20912570;28;20394;-78
2022/03/11 20:43:34;;;;;;;3.15;2.05;;;;;;;-148.93;100.00;62180.91;20893691;28;20103;-78
2022/03/11 20:53:37;;;;;;;3.13;1.95;;;;;;;-148.93;100.00;62180.91;20892895;28;20045;-77
2022/03/11 21:03:41;;;;;;;2.50;1.98;;;;;;;-148.93;100.00;62180.91;20892248;28;20136;-78
2022/03/11 21:13:46;;;;;;;3.03;1.95;;;;;;;-148.93;100.00;62180.91;20909060;28;20073;-76
2022/03/11 21:23:47;;;;;;;2.70;2.00;;;;;;;-148.93;100.00;62180.91;20891039;28;20041;-76
2022/03/11 21:33:50;;;;;;;2.53;1.90;;;;;;;-148.93;100.00;62180.91;20890372;28;20053;-76
2022/03/11 21:43:56;;;;;;;4.80;2.00;;;;;;;-148.93;100.00;62180.91;20889212;28;20072;-77
2022/03/11 21:54:00;;;;;;;2.22;1.90;;;;;;;-148.93;100.00;62180.91;20912416;28;20060;-76
2022/03/11 22:04:02;;;;;;;4.18;1.58;;;;;;;-148.93;100.00;62180.91;20888352;28;20049;-77
2022/03/11 22:14:05;;;;;;;2.53;1.88;;;;;;;-148.93;100.00;62180.91;20900519;28;20505;-77
2022/03/11 22:24:13;;;;;;;4.30;2.00;;;;;;;-148.93;100.00;62180.91;20902711;28;20053;-77
2022/03/11 22:34:15;;;;;;;1.88;1.50;;;;;;;-148.93;100.00;62180.91;20899971;28;20410;-77
2022/03/11 22:44:18;;;;;;;3.13;1.50;;;;;;;-148.93;100.00;62180.91;20878810;28;20049;-77
2022/03/11 22:54:27;;;;;;;3.13;1.60;;;;;;;-148.93;100.00;62180.91;20896335;28;20076;-77
2022/03/11 23:04:32;;;;;;;3.35;2.08;;;;;;;-148.93;100.00;62180.91;20880055;28;20517;-77
2022/03/11 23:14:36;;;;;;;2.72;1.60;;;;;;;-148.93;100.00;62180.91;20883006;28;20064;-77
2022/03/11 23:24:37;;;;;;;3.78;1.90;;;;;;;-148.93;100.00;62180.91;20893525;28;20678;-77
2022/03/11 23:34:39;;;;;;;3.20;1.73;;;;;;;-148.93;100.00;62180.91;20909568;28;20037;-77
2022/03/11 23:44:43;;;;;;;2.50;1.60;;;;;;;-148.93;100.00;62180.91;20910631;28;20127;-77
2022/03/11 23:54:45;;;;;;;2.38;1.30;;;;;;;-148.93;100.00;62180.91;20903195;28;20049;-77
